Ana Sayfa
METAR-TAF:

METAR-TAF

Havaalanları :

Pocono Mountains Municipal Airport

Mount Pocono, Pensilvanya, Amerika Birleşik Devletleri

Enlem: 41-08-20N, Boylam: 075-23-46W, yükseklik: 584 m

Güncel hava durumu gözlemi

Rapor saat 09:53 UTC de 40 dakika önce yapıldı.
Rüzgar batıdan 13 kt ve 25 kt'a kadar ani rüzgarlar
Sıcaklık -8°C
Nem 62%
Basınç 1005 hPa
Görüş mesafesi: 16.1 km
3400 ft yükseklikte az bulutlu

METAR: KMPO 280953Z AUTO 26013G25KT 10SM FEW034 M08/M14 A2969 RMK AO2 SLP083 T10781139

Saat: 05:33 (10:33 UTC)


TAF: eksik

4.000'den fazla havaalanı için hava durumu gözlemleri ve tahminleri (METAR ve TAF raporları).

Kullanılabilir istasyonlar harita üzerinde sarı ve kırmızı noktalarla gösterilir.

İstasyonun adını görmek için fareyi noktanın üzerinde gezdirin.

Sonrasında hava gözlem ve tahminlerini görmek için tıklayın.

Haritayı değiştirmek için: yaklaştırmak için siyah artı işaretli yeşil düğmeye ve uzaklaştırmak için de eksi işaretli düğmeye hızla tıklayın; bitişik haritalar için yeşil okları kullanın.


METAR-TAF: